Aviation Digital Data Service (ADDS)

Output produced by METARs form (0312 UTC 26 August 2016)
found at http://www.aviationweather.gov/adds/metars/
 
METAR text: EPKT 260300Z 09008KT CAVOK 12/11 Q1023
Conditions at: EPKT (KATOWICE/PYRZOWI, PL) observed 0300 UTC 26 August 2016
Temperature: 12.0°C (54°F)
Dewpoint: 11.0°C (52°F) [RH = 94%]
Pressure (altimeter): 30.21 inches Hg (1023.0 mb)
Winds: from the E (90 degrees) at 9 MPH (8 knots; 4.2 m/s)
Visibility: 6 or more miles (10+ km)
Ceiling: ceiling and visibility are OK
Clouds: unknown
Weather: no significant weather observed at this time

Forecast for: EPKT (KATOWICE/PYRZOWI, PL)
Text: TAF EPKT 252330Z 2600/2624 11006KT CAVOK
Forecast period: 0000 UTC 26 August 2016 to 0000 UTC 27 August 2016
Forecast type: FROM: standard forecast or significant change
Winds: from the ESE (110 degrees) at 7 MPH (6 knots; 3.1 m/s)
Visibility: 6 or more miles (10+ km)
Clouds: not forecast
Weather: NSW  (no significant weather)